Time;durP1;ratioP1;P1;durP2;ratioP2;P2;SDS_P1;SDS_P2;PMS_P1;PMS_P2;Temp;Humidity;BMP_temperature;BMP_pressure;BME280_temperature;BME280_humidity;BME280_pressure;Samples;Min_cycle;Max_cycle;Signal;HPM_P1;HPM_P2
2022/03/19 00:00:33;;;;;;;9.25;4.40;;;9.30;99.90;;;;;;5065281;28;20241;-43
2022/03/19 00:02:59;;;;;;;12.90;5.22;;;9.40;99.90;;;;;;5077813;28;20017;-42
2022/03/19 00:05:24;;;;;;;14.55;5.75;;;9.40;99.90;;;;;;5064401;28;20056;-42
2022/03/19 00:07:50;;;;;;;13.73;5.20;;;9.40;99.90;;;;;;5075590;28;20016;-43
2022/03/19 00:10:17;;;;;;;12.10;4.65;;;9.40;99.90;;;;;;5066778;28;20017;-42
2022/03/19 00:12:42;;;;;;;10.98;4.50;;;9.40;99.90;;;;;;5072028;28;20020;-42
2022/03/19 00:15:10;;;;;;;12.48;4.93;;;9.40;99.90;;;;;;5070302;28;20047;-43
2022/03/19 00:17:36;;;;;;;11.38;4.40;;;9.40;99.90;;;;;;5073648;28;20024;-41
2022/03/19 00:20:03;;;;;;;12.43;5.00;;;9.40;99.90;;;;;;5075582;28;20558;-38
2022/03/19 00:22:28;;;;;;;13.13;4.85;;;9.40;99.90;;;;;;5071686;28;20535;-42
2022/03/19 00:24:54;;;;;;;12.80;4.40;;;9.30;99.90;;;;;;5077118;28;20127;-42
2022/03/19 00:27:20;;;;;;;13.40;4.95;;;9.30;99.90;;;;;;5070401;28;20074;-41
2022/03/19 00:29:45;;;;;;;9.73;4.28;;;9.30;99.90;;;;;;5079808;28;20476;-42
2022/03/19 00:32:11;;;;;;;8.95;3.90;;;9.30;99.90;;;;;;5069564;28;20024;-42
2022/03/19 00:34:37;;;;;;;11.75;4.43;;;9.30;99.90;;;;;;5079582;28;20101;-41
2022/03/19 00:37:02;;;;;;;9.40;3.75;;;9.30;99.90;;;;;;5068550;28;20039;-42
2022/03/19 00:39:28;;;;;;;10.95;4.22;;;9.20;99.90;;;;;;5080632;28;20028;-43
2022/03/19 00:41:54;;;;;;;7.45;3.35;;;9.20;99.90;;;;;;5068200;28;20044;-40
2022/03/19 00:44:23;;;;;;;11.68;4.38;;;9.20;99.90;;;;;;5080931;28;20509;-40
2022/03/19 00:46:49;;;;;;;10.90;4.25;;;9.10;99.90;;;;;;5067070;28;20032;-40
2022/03/19 00:49:15;;;;;;;8.85;3.30;;;9.10;99.90;;;;;;5073961;28;20021;-41
2022/03/19 00:51:40;;;;;;;11.80;3.95;;;9.10;99.90;;;;;;5086458;28;20124;-42
2022/03/19 00:54:08;;;;;;;12.85;4.68;;;9.00;99.90;;;;;;5079991;28;20020;-42
2022/03/19 00:56:33;;;;;;;11.13;3.95;;;9.00;99.90;;;;;;5084540;28;20024;-43
2022/03/19 00:59:00;;;;;;;9.82;3.80;;;9.00;99.90;;;;;;5081993;28;20052;-41
2022/03/19 01:01:26;;;;;;;10.57;3.88;;;8.90;99.90;;;;;;5080980;28;20578;-42
2022/03/19 01:03:51;;;;;;;9.15;3.60;;;8.90;99.90;;;;;;5084169;28;20130;-42
2022/03/19 01:06:17;;;;;;;10.63;3.55;;;8.80;99.90;;;;;;5079261;28;20067;-36
2022/03/19 01:08:42;;;;;;;10.93;4.30;;;8.80;99.90;;;;;;5085545;28;20348;-42
2022/03/19 01:11:11;;;;;;;11.50;4.57;;;8.80;99.90;;;;;;5077191;28;20024;-40
2022/03/19 01:13:37;;;;;;;9.57;4.93;;;8.80;99.90;;;;;;5086542;28;20023;-42
2022/03/19 01:16:03;;;;;;;9.88;4.35;;;8.70;99.90;;;;;;5075846;28;20046;-41
2022/03/19 01:18:29;;;;;;;8.30;3.90;;;8.70;99.90;;;;;;5088738;28;20043;-43
2022/03/19 01:20:55;;;;;;;13.68;4.93;;;8.70;99.90;;;;;;5073928;28;20119;-41
2022/03/19 01:23:20;;;;;;;12.15;5.40;;;8.70;99.90;;;;;;5087661;28;20046;-41
2022/03/19 01:25:46;;;;;;;10.52;4.00;;;8.70;99.90;;;;;;5074646;28;20028;-40
2022/03/19 01:28:11;;;;;;;9.05;4.00;;;8.60;99.90;;;;;;5086514;28;20051;-40
2022/03/19 01:30:37;;;;;;;11.75;4.55;;;8.60;99.90;;;;;;5076615;28;20028;-42
2022/03/19 01:33:02;;;;;;;10.25;3.78;;;8.60;99.90;;;;;;5086204;28;20028;-42
2022/03/19 01:35:28;;;;;;;9.80;3.80;;;8.50;99.90;;;;;;5078478;28;20081;-42
2022/03/19 01:37:53;;;;;;;12.68;4.78;;;8.50;99.90;;;;;;5082628;28;20040;-42
2022/03/19 01:40:20;;;;;;;9.07;4.20;;;8.50;99.90;;;;;;5082275;28;20072;-41
2022/03/19 01:42:48;;;;;;;10.70;4.32;;;8.40;99.90;;;;;;5079079;28;20028;-36
2022/03/19 01:45:20;;;;;;;9.70;4.32;;;8.40;99.90;;;;;;5084551;28;20016;-42
2022/03/19 01:47:48;;;;;;;8.82;4.13;;;8.30;99.90;;;;;;5078517;28;20467;-42
2022/03/19 01:50:17;;;;;;;10.27;4.35;;;8.30;99.90;;;;;;5085236;28;20040;-41
2022/03/19 01:52:42;;;;;;;10.02;4.28;;;8.30;99.90;;;;;;5076651;28;20043;-42
2022/03/19 01:55:09;;;;;;;9.73;4.07;;;8.30;99.90;;;;;;5086385;28;20024;-42
2022/03/19 01:57:38;;;;;;;8.27;4.07;;;8.30;99.90;;;;;;5074990;28;20114;-41
2022/03/19 02:00:06;;;;;;;10.70;4.75;;;8.20;99.90;;;;;;5085159;28;20817;-42
2022/03/19 02:02:31;;;;;;;10.98;4.43;;;8.20;99.90;;;;;;5078595;28;20028;-43
2022/03/19 02:04:59;;;;;;;9.88;4.68;;;8.10;99.90;;;;;;5066389;28;20503;-42
2022/03/19 02:07:24;;;;;;;9.27;4.60;;;8.10;99.90;;;;;;5079650;28;20025;-42
2022/03/19 02:09:50;;;;;;;10.65;5.03;;;8.10;99.90;;;;;;5066461;28;20384;-40
2022/03/19 02:12:16;;;;;;;10.52;5.18;;;8.10;99.90;;;;;;5078557;28;20059;-41
2022/03/19 02:14:42;;;;;;;7.90;4.43;;;8.10;99.90;;;;;;5066451;28;20120;-41
2022/03/19 02:17:11;;;;;;;10.07;4.72;;;8.10;99.90;;;;;;5076613;28;20044;-41
2022/03/19 02:19:51;;;;;;;8.10;4.20;;;8.10;99.90;;;;;;5068634;28;20086;-43
2022/03/19 02:22:18;;;;;;;10.80;4.47;;;8.00;99.90;;;;;;5076910;28;20100;-41
2022/03/19 02:27:29;;;;;;;10.52;4.93;;;7.90;99.90;;;;;;5077580;28;20101;-41
2022/03/19 02:29:56;;;;;;;9.32;4.80;;;7.90;99.90;;;;;;5068422;28;20033;-43
2022/03/19 02:32:22;;;;;;;11.93;5.35;;;7.80;99.90;;;;;;5074426;28;20069;-42
2022/03/19 02:34:48;;;;;;;12.93;5.18;;;7.80;99.90;;;;;;5069714;28;20029;-41
2022/03/19 02:37:13;;;;;;;11.10;5.43;;;7.80;99.90;;;;;;5071698;28;20376;-38
2022/03/19 02:39:39;;;;;;;13.13;4.80;;;7.70;99.90;;;;;;5072060;28;20060;-40
2022/03/19 02:42:06;;;;;;;12.02;5.10;;;7.70;99.90;;;;;;5068755;28;20385;-39
2022/03/19 02:44:32;;;;;;;7.43;4.35;;;7.70;99.90;;;;;;5075745;28;20045;-43
2022/03/19 02:47:00;;;;;;;9.55;5.03;;;7.70;99.90;;;;;;5066775;28;20115;-41
2022/03/19 02:49:26;;;;;;;12.52;5.43;;;7.70;99.90;;;;;;5077368;28;20145;-42
2022/03/19 02:51:54;;;;;;;11.07;5.40;;;7.70;99.90;;;;;;5066660;28;20432;-41
2022/03/19 02:54:22;;;;;;;13.35;5.38;;;7.70;99.90;;;;;;5077137;28;20039;-42
2022/03/19 02:56:47;;;;;;;10.77;5.25;;;7.70;99.90;;;;;;5065440;28;20029;-39
2022/03/19 02:59:20;;;;;;;10.23;5.10;;;7.70;99.90;;;;;;5078019;28;20075;-42
2022/03/19 03:01:47;;;;;;;9.80;4.65;;;7.70;99.90;;;;;;5065785;28;20151;-41
2022/03/19 03:04:13;;;;;;;10.75;5.07;;;7.70;99.90;;;;;;5078139;28;20151;-41
2022/03/19 03:06:41;;;;;;;8.80;5.30;;;7.70;99.90;;;;;;5065306;28;20929;-40
2022/03/19 03:09:07;;;;;;;14.65;5.60;;;7.70;99.90;;;;;;5078217;28;20085;-41
2022/03/19 03:11:33;;;;;;;11.13;6.03;;;7.70;99.90;;;;;;5065129;28;20562;-42
2022/03/19 03:13:59;;;;;;;9.40;5.85;;;7.80;99.90;;;;;;5075032;28;20028;-41
2022/03/19 03:16:29;;;;;;;12.93;6.30;;;7.80;99.90;;;;;;5068510;28;20035;-42
2022/03/19 03:18:56;;;;;;;13.48;7.10;;;7.80;99.90;;;;;;5072753;28;20024;-43
2022/03/19 03:21:22;;;;;;;13.10;6.38;;;7.80;99.90;;;;;;5069833;28;20189;-42
2022/03/19 03:23:47;;;;;;;11.10;6.03;;;7.90;99.90;;;;;;5070548;28;20020;-41
2022/03/19 03:26:13;;;;;;;9.50;5.20;;;7.90;99.90;;;;;;5072932;28;20041;-41
2022/03/19 03:28:38;;;;;;;9.93;5.45;;;7.90;99.90;;;;;;5067543;28;20031;-41
2022/03/19 03:31:04;;;;;;;11.63;5.80;;;7.90;99.90;;;;;;5074546;28;20028;-40
2022/03/19 03:33:30;;;;;;;10.18;5.47;;;7.90;99.90;;;;;;5067180;28;20024;-41
2022/03/19 03:35:55;;;;;;;15.05;6.40;;;7.90;99.90;;;;;;5075525;28;20036;-42
2022/03/19 03:38:21;;;;;;;14.23;6.63;;;7.90;99.90;;;;;;5066935;28;20028;-41
2022/03/19 03:40:47;;;;;;;10.43;5.88;;;7.90;99.90;;;;;;5076318;28;20418;-40
2022/03/19 03:43:12;;;;;;;9.85;5.90;;;7.90;99.90;;;;;;5064722;28;20089;-41
2022/03/19 03:45:38;;;;;;;9.30;6.15;;;7.90;99.90;;;;;;5077071;28;20031;-40
2022/03/19 03:48:04;;;;;;;9.73;5.75;;;8.00;99.90;;;;;;5065623;28;20028;-42
2022/03/19 03:50:30;;;;;;;11.98;5.97;;;7.90;99.90;;;;;;5077215;28;20024;-41
2022/03/19 03:52:56;;;;;;;11.88;6.38;;;7.90;99.90;;;;;;5064694;28;20566;-42
2022/03/19 03:55:22;;;;;;;10.98;6.10;;;8.00;99.90;;;;;;5074930;28;20023;-42
2022/03/19 03:57:47;;;;;;;13.48;6.20;;;8.00;99.90;;;;;;5066726;28;20333;-41
2022/03/19 04:00:13;;;;;;;14.15;6.82;;;8.00;99.90;;;;;;5072012;28;20036;-42
2022/03/19 04:02:39;;;;;;;12.02;6.80;;;8.00;99.90;;;;;;5069706;28;20020;-41
2022/03/19 04:05:06;;;;;;;13.45;6.35;;;8.00;99.90;;;;;;5070178;28;20024;-40
2022/03/19 04:07:32;;;;;;;14.73;7.22;;;8.00;99.90;;;;;;5072326;28;20043;-41
2022/03/19 04:09:57;;;;;;;15.43;7.32;;;8.00;99.90;;;;;;5066677;28;20013;-43
2022/03/19 04:12:23;;;;;;;13.48;7.47;;;8.10;99.90;;;;;;5074938;28;20039;-41
2022/03/19 04:14:49;;;;;;;14.15;7.40;;;8.00;99.90;;;;;;5065973;28;20024;-42
2022/03/19 04:17:15;;;;;;;11.38;6.82;;;8.10;99.90;;;;;;5076240;28;20039;-42
2022/03/19 04:19:41;;;;;;;12.63;6.93;;;8.10;99.90;;;;;;5065524;28;20024;-43
2022/03/19 04:22:07;;;;;;;13.18;7.78;;;8.10;99.90;;;;;;5076736;28;20040;-42
2022/03/19 04:24:32;;;;;;;14.40;6.68;;;8.10;99.90;;;;;;5064099;28;20111;-42
2022/03/19 04:26:58;;;;;;;9.88;6.18;;;8.20;99.90;;;;;;5077041;28;20111;-41
2022/03/19 04:29:24;;;;;;;11.93;6.47;;;8.10;99.90;;;;;;5065791;28;20036;-42
2022/03/19 04:31:50;;;;;;;16.38;7.55;;;8.10;99.90;;;;;;5076071;28;20032;-42
2022/03/19 04:34:15;;;;;;;13.40;6.65;;;8.10;99.90;;;;;;5065920;28;20085;-42
2022/03/19 04:36:41;;;;;;;15.50;7.45;;;8.10;99.90;;;;;;5073476;28;20047;-41
2022/03/19 04:39:07;;;;;;;16.17;7.15;;;8.10;99.90;;;;;;5067258;28;20028;-43
2022/03/19 04:41:34;;;;;;;14.63;7.07;;;8.10;99.90;;;;;;5071168;28;20040;-41
2022/03/19 04:44:00;;;;;;;11.77;6.50;;;8.10;99.90;;;;;;5070104;28;20033;-42
2022/03/19 04:46:25;;;;;;;12.75;6.70;;;8.10;99.90;;;;;;5068498;28;20024;-42
2022/03/19 04:48:52;;;;;;;13.10;6.57;;;8.10;99.90;;;;;;5071347;28;20484;-41
2022/03/19 04:51:20;;;;;;;14.63;7.22;;;8.10;99.90;;;;;;5066794;28;20025;-41
2022/03/19 04:53:50;;;;;;;13.80;6.85;;;8.10;99.90;;;;;;5073943;28;20024;-40
2022/03/19 04:56:20;;;;;;;12.07;7.07;;;8.10;99.90;;;;;;5066444;28;20078;-40
2022/03/19 04:58:46;;;;;;;11.05;6.47;;;8.10;99.90;;;;;;5074925;28;20524;-41
2022/03/19 05:01:12;;;;;;;13.77;7.10;;;8.00;99.90;;;;;;5064127;28;20052;-43
2022/03/19 05:03:37;;;;;;;15.80;6.30;;;8.00;99.90;;;;;;5079273;28;20040;-40
2022/03/19 05:06:03;;;;;;;16.45;7.05;;;8.00;99.90;;;;;;5067478;28;20384;-41
2022/03/19 05:08:28;;;;;;;14.23;6.22;;;8.00;99.90;;;;;;5080799;28;20028;-41
2022/03/19 05:11:13;;;;;;;12.63;7.35;;;7.90;99.90;;;;;;5067665;28;20032;-42
2022/03/19 05:13:47;;;;;;;18.33;6.88;;;7.90;99.90;;;;;;5079740;28;20028;-41
2022/03/19 05:16:13;;;;;;;13.75;6.63;;;7.90;99.90;;;;;;5067995;28;20434;-43
2022/03/19 05:18:39;;;;;;;12.48;7.18;;;7.90;99.90;;;;;;5080582;28;20499;-41
2022/03/19 05:21:05;;;;;;;15.75;7.32;;;7.90;99.90;;;;;;5066882;28;20096;-43
2022/03/19 05:23:31;;;;;;;12.18;6.93;;;7.80;99.90;;;;;;5080013;28;20028;-43
2022/03/19 05:25:58;;;;;;;13.95;7.38;;;7.80;99.90;;;;;;5067819;28;20024;-40
2022/03/19 05:28:24;;;;;;;14.55;7.32;;;7.80;99.90;;;;;;5076777;28;20031;-40
2022/03/19 05:30:50;;;;;;;16.30;7.82;;;7.80;99.90;;;;;;5070816;28;20032;-42
2022/03/19 05:33:16;;;;;;;10.98;6.57;;;7.80;99.90;;;;;;5074596;28;20384;-42
2022/03/19 05:35:42;;;;;;;13.40;6.78;;;7.70;99.90;;;;;;5072089;28;20025;-35
2022/03/19 05:38:08;;;;;;;10.65;6.00;;;7.70;99.90;;;;;;5071855;28;20181;-34
2022/03/19 05:40:34;;;;;;;11.60;6.35;;;7.70;99.90;;;;;;5075430;28;20626;-41
2022/03/19 05:43:00;;;;;;;16.48;6.90;;;7.70;99.90;;;;;;5068523;28;20777;-41
2022/03/19 05:45:26;;;;;;;14.30;6.50;;;7.60;99.90;;;;;;5078841;28;20103;-42
2022/03/19 05:47:51;;;;;;;13.73;7.07;;;7.60;99.90;;;;;;5070063;28;20777;-41
2022/03/19 05:50:17;;;;;;;13.15;6.55;;;7.60;99.90;;;;;;5075388;28;20024;-41
2022/03/19 05:52:46;;;;;;;13.13;6.60;;;7.60;99.90;;;;;;5086447;28;20020;-41
2022/03/19 05:55:13;;;;;;;12.25;6.55;;;7.60;99.90;;;;;;5075261;28;20016;-42
2022/03/19 05:57:40;;;;;;;16.65;6.55;;;7.60;99.90;;;;;;5087357;28;20368;-43
2022/03/19 06:00:07;;;;;;;16.48;6.95;;;7.60;99.90;;;;;;5074566;28;20017;-42
2022/03/19 06:02:38;;;;;;;13.23;6.25;;;7.50;99.90;;;;;;5086413;28;20024;-43
2022/03/19 06:05:04;;;;;;;11.27;5.93;;;7.60;99.90;;;;;;5074200;28;20021;-43
2022/03/19 06:07:29;;;;;;;11.98;5.53;;;7.50;99.90;;;;;;5087850;28;20032;-41
2022/03/19 06:09:55;;;;;;;13.20;5.88;;;7.50;99.90;;;;;;5075140;28;20035;-42
2022/03/19 06:12:21;;;;;;;12.70;5.88;;;7.50;99.90;;;;;;5084815;28;20745;-42
2022/03/19 06:14:49;;;;;;;11.70;5.70;;;7.50;99.90;;;;;;5077865;28;20038;-41
2022/03/19 06:17:14;;;;;;;18.63;6.47;;;7.50;99.90;;;;;;5082658;28;20023;-41
2022/03/19 06:19:39;;;;;;;13.70;5.38;;;7.50;99.90;;;;;;5080786;28;20017;-42
2022/03/19 06:22:05;;;;;;;11.50;5.03;;;7.50;99.90;;;;;;5080354;28;20499;-43
2022/03/19 06:24:30;;;;;;;10.82;4.70;;;7.50;99.90;;;;;;5083654;28;20035;-40
2022/03/19 06:26:56;;;;;;;14.13;5.95;;;7.50;99.90;;;;;;5076375;28;20035;-40
2022/03/19 06:29:22;;;;;;;13.02;5.50;;;7.50;99.90;;;;;;5085594;28;20023;-40
2022/03/19 06:31:48;;;;;;;11.95;4.95;;;7.40;99.90;;;;;;5074722;28;20566;-40
2022/03/19 06:34:13;;;;;;;8.88;5.03;;;7.50;99.90;;;;;;5085771;28;20024;-42
2022/03/19 06:39:23;;;;;;;10.82;5.15;;;7.50;99.90;;;;;;5084629;28;20075;-41
2022/03/19 06:41:49;;;;;;;12.73;4.63;;;7.50;99.90;;;;;;5077324;28;20021;-41
2022/03/19 06:44:15;;;;;;;13.50;5.70;;;7.50;99.90;;;;;;5067497;28;20032;-42
2022/03/19 06:46:40;;;;;;;11.38;5.50;;;7.50;99.90;;;;;;5077534;28;20028;-41
2022/03/19 06:49:06;;;;;;;9.65;4.82;;;7.60;99.90;;;;;;5066802;28;20025;-40
2022/03/19 06:51:31;;;;;;;11.68;4.97;;;7.60;99.90;;;;;;5077673;28;20074;-38
2022/03/19 06:53:57;;;;;;;10.63;4.55;;;7.60;99.90;;;;;;5066215;28;20150;-39
2022/03/19 06:56:23;;;;;;;12.20;5.47;;;7.60;99.90;;;;;;5076130;28;20459;-41
2022/03/19 06:58:48;;;;;;;9.90;4.95;;;7.70;99.90;;;;;;5068002;28;20117;-39
2022/03/19 07:01:16;;;;;;;10.60;4.38;;;7.70;99.90;;;;;;5073514;28;20024;-42
2022/03/19 07:03:43;;;;;;;9.10;4.65;;;7.70;99.90;;;;;;5070659;28;20021;-42
2022/03/19 07:06:09;;;;;;;11.85;4.57;;;7.80;99.90;;;;;;5070670;28;20658;-42
2022/03/19 07:08:35;;;;;;;10.65;4.40;;;7.80;99.90;;;;;;5073377;28;20032;-43
2022/03/19 07:11:00;;;;;;;11.35;4.65;;;7.90;99.90;;;;;;5067830;28;20478;-44
2022/03/19 07:13:26;;;;;;;13.82;4.38;;;7.90;99.90;;;;;;5076107;28;20031;-40
2022/03/19 07:15:51;;;;;;;12.13;4.30;;;7.90;99.90;;;;;;5066920;28;20035;-37
2022/03/19 07:18:17;;;;;;;14.98;4.13;;;7.90;99.90;;;;;;5077620;28;20090;-39
2022/03/19 07:20:42;;;;;;;11.48;4.35;;;8.00;99.90;;;;;;5065599;28;20051;-42
2022/03/19 07:23:08;;;;;;;7.03;3.78;;;8.00;99.90;;;;;;5077786;28;20031;-41
2022/03/19 07:25:40;;;;;;;11.40;4.22;;;8.10;99.90;;;;;;5065535;28;20032;-41
2022/03/19 07:28:17;;;;;;;7.57;3.60;;;8.10;99.90;;;;;;5077773;28;20486;-41
2022/03/19 07:30:43;;;;;;;10.68;3.75;;;8.10;99.90;;;;;;5065657;28;20102;-44
2022/03/19 07:33:09;;;;;;;13.13;4.05;;;8.10;99.90;;;;;;5078838;28;20364;-42
2022/03/19 07:35:34;;;;;;;9.75;4.30;;;8.10;99.90;;;;;;5065457;28;20036;-42
2022/03/19 07:38:02;;;;;;;12.23;4.55;;;8.10;99.90;;;;;;5077246;28;20028;-40
2022/03/19 07:43:13;;;;;;;9.85;4.30;;;8.10;99.90;;;;;;5077534;28;20047;-41
2022/03/19 07:45:40;;;;;;;13.23;5.32;;;8.10;99.90;;;;;;5066714;28;20033;-41
2022/03/19 07:48:06;;;;;;;12.05;5.25;;;8.10;99.90;;;;;;5067694;28;20035;-41
2022/03/19 07:50:32;;;;;;;10.50;4.78;;;8.10;99.90;;;;;;5072467;28;20028;-41
2022/03/19 07:52:59;;;;;;;11.32;4.97;;;8.10;99.90;;;;;;5077014;28;20032;-43
2022/03/19 07:55:25;;;;;;;16.45;5.70;;;8.20;99.90;;;;;;5070587;28;20036;-42
2022/03/19 07:57:53;;;;;;;12.43;5.50;;;8.20;99.90;;;;;;5069615;28;20036;-41
2022/03/19 08:00:19;;;;;;;12.18;6.03;;;8.20;99.90;;;;;;5073459;28;20036;-41
2022/03/19 08:02:45;;;;;;;14.77;5.85;;;8.20;99.90;;;;;;5067015;28;20028;-42
2022/03/19 08:05:12;;;;;;;10.50;5.20;;;8.20;99.90;;;;;;5075557;28;20349;-43
2022/03/19 08:07:38;;;;;;;10.63;5.53;;;8.20;99.90;;;;;;5066377;28;20463;-42
2022/03/19 08:10:05;;;;;;;14.57;5.82;;;8.30;99.90;;;;;;5076272;28;20739;-41
2022/03/19 08:12:31;;;;;;;11.07;5.45;;;8.30;99.90;;;;;;5066582;28;20484;-40
2022/03/19 08:14:59;;;;;;;13.20;5.72;;;8.40;99.90;;;;;;5076667;28;20059;-41
2022/03/19 08:17:28;;;;;;;14.65;5.50;;;8.40;99.90;;;;;;5064668;28;20855;-40
2022/03/19 08:19:56;;;;;;;9.93;5.13;;;8.50;99.90;;;;;;5077375;28;20025;-42
2022/03/19 08:22:21;;;;;;;10.65;5.28;;;8.50;99.90;;;;;;5065018;28;20040;-42
2022/03/19 08:24:47;;;;;;;8.65;4.75;;;8.60;99.90;;;;;;5076468;28;20028;-40
2022/03/19 08:27:12;;;;;;;12.80;5.68;;;8.60;99.90;;;;;;5065392;28;20032;-42
2022/03/19 08:29:38;;;;;;;17.50;5.63;;;8.70;99.90;;;;;;5075947;28;20444;-41
2022/03/19 08:32:04;;;;;;;12.27;5.55;;;8.80;99.90;;;;;;5065824;28;20040;-44
2022/03/19 08:34:30;;;;;;;12.60;5.00;;;8.80;99.90;;;;;;5073537;28;20502;-42
2022/03/19 08:36:55;;;;;;;9.93;4.93;;;8.80;99.90;;;;;;5077696;28;20635;-41
2022/03/19 08:42:05;;;;;;;10.10;5.25;;;9.00;99.90;;;;;;5074105;28;20047;-42
2022/03/19 08:44:31;;;;;;;12.60;4.45;;;9.00;99.90;;;;;;5073166;28;20387;-42
2022/03/19 08:46:56;;;;;;;11.65;5.07;;;9.10;99.90;;;;;;5075270;28;20785;-38
2022/03/19 08:49:22;;;;;;;14.85;4.80;;;9.10;99.80;;;;;;5070885;28;20479;-40
2022/03/19 08:51:47;;;;;;;11.10;4.30;;;9.20;99.60;;;;;;5076639;28;20028;-40
2022/03/19 08:54:19;;;;;;;12.65;4.45;;;9.20;99.50;;;;;;5068997;28;20024;-41
2022/03/19 08:56:47;;;;;;;14.60;4.18;;;9.30;99.50;;;;;;5078896;28;20048;-43
2022/03/19 08:59:13;;;;;;;11.40;4.50;;;9.30;99.40;;;;;;5068276;28;20109;-41
2022/03/19 09:01:40;;;;;;;12.90;5.60;;;9.40;98.60;;;;;;5079185;28;20067;-42
2022/03/19 09:04:07;;;;;;;14.80;4.22;;;9.40;98.80;;;;;;5068253;28;20032;-42
2022/03/19 09:06:32;;;;;;;9.88;4.03;;;9.50;98.30;;;;;;5078850;28;20028;-41
2022/03/19 09:09:03;;;;;;;11.02;4.30;;;9.50;98.00;;;;;;5066588;28;20054;-43
2022/03/19 09:11:32;;;;;;;10.95;4.40;;;9.60;97.10;;;;;;5080722;28;20078;-42
2022/03/19 09:13:58;;;;;;;9.57;3.60;;;9.70;97.10;;;;;;5067058;28;20108;-40
2022/03/19 09:16:24;;;;;;;8.30;4.00;;;9.70;97.00;;;;;;5079223;28;20069;-42
2022/03/19 09:18:51;;;;;;;9.95;3.95;;;9.80;96.60;;;;;;5065448;28;20036;-39
2022/03/19 09:21:17;;;;;;;8.23;3.70;;;9.80;96.10;;;;;;5074707;28;20493;-42
2022/03/19 09:23:45;;;;;;;10.20;3.95;;;9.90;95.90;;;;;;5067502;28;20033;-41
2022/03/19 09:26:11;;;;;;;9.38;3.88;;;9.90;95.40;;;;;;5072516;28;20119;-42
2022/03/19 09:28:37;;;;;;;8.20;3.08;;;10.00;95.40;;;;;;5070887;28;20028;-41
2022/03/19 09:31:02;;;;;;;7.07;3.45;;;10.10;94.70;;;;;;5072459;28;20043;-41
2022/03/19 09:33:28;;;;;;;10.88;3.85;;;10.10;94.50;;;;;;5073650;28;20059;-42
2022/03/19 09:35:54;;;;;;;7.90;3.97;;;10.10;94.00;;;;;;5070371;28;20031;-38
2022/03/19 09:38:20;;;;;;;8.02;3.33;;;10.20;94.40;;;;;;5077733;28;20471;-41
2022/03/19 09:40:45;;;;;;;6.45;3.35;;;10.30;94.30;;;;;;5067482;28;20031;-42
2022/03/19 09:43:11;;;;;;;10.15;4.18;;;10.30;93.90;;;;;;5078659;28;20027;-41
2022/03/19 09:45:38;;;;;;;6.63;3.00;;;10.40;93.00;;;;;;5068958;28;20074;-42
2022/03/19 09:48:04;;;;;;;5.00;2.58;;;10.40;92.70;;;;;;5076391;28;20523;-40
2022/03/19 09:50:30;;;;;;;9.60;3.33;;;10.50;92.30;;;;;;5067753;28;20059;-41
2022/03/19 09:52:57;;;;;;;7.25;3.40;;;10.50;92.30;;;;;;5079354;28;20066;-42
2022/03/19 09:55:26;;;;;;;8.25;3.35;;;10.60;91.80;;;;;;5066624;28;20028;-41
2022/03/19 09:57:53;;;;;;;8.10;3.83;;;10.60;91.50;;;;;;5079187;28;20105;-41
2022/03/19 10:00:22;;;;;;;6.15;3.03;;;10.60;91.10;;;;;;5067084;28;20024;-38
2022/03/19 10:02:53;;;;;;;10.50;3.17;;;10.70;90.10;;;;;;5077311;28;20028;-40
2022/03/19 10:10:49;;;;;;;7.85;3.00;;;10.70;88.00;;;;;;5066766;28;20035;-41
2022/03/19 10:13:14;;;;;;;7.72;2.80;;;10.80;85.40;;;;;;5079178;28;20032;-42
2022/03/19 10:15:41;;;;;;;7.03;2.97;;;10.80;85.60;;;;;;5066468;28;20029;-39
2022/03/19 10:18:11;;;;;;;4.53;2.53;;;10.90;85.30;;;;;;5071122;28;20028;-41
2022/03/19 10:20:37;;;;;;;4.97;2.33;;;10.90;80.80;;;;;;5084024;28;20534;-41
2022/03/19 10:23:03;;;;;;;5.70;2.50;;;10.90;79.90;;;;;;5078505;28;20404;-40
2022/03/19 10:25:30;;;;;;;4.65;2.28;;;10.90;79.70;;;;;;5081658;28;20616;-40
2022/03/19 10:28:08;;;;;;;7.55;2.78;;;10.90;79.30;;;;;;5082103;28;20417;-42
2022/03/19 10:30:38;;;;;;;5.50;2.35;;;11.00;79.60;;;;;;5070021;28;20059;-40
2022/03/19 10:33:07;;;;;;;6.75;2.53;;;11.00;75.50;;;;;;5071359;28;20032;-41
2022/03/19 10:35:39;;;;;;;6.15;2.22;;;11.10;75.70;;;;;;5073493;28;20024;-40
2022/03/19 10:38:19;;;;;;;5.40;2.80;;;11.10;75.10;;;;;;5067388;28;20103;-41
2022/03/19 10:40:47;;;;;;;6.38;2.13;;;11.20;75.50;;;;;;5072350;28;20301;-41
2022/03/19 10:43:17;;;;;;;6.07;2.50;;;11.20;75.50;;;;;;5068337;28;20025;-42
2022/03/19 10:45:48;;;;;;;8.98;3.05;;;11.20;75.70;;;;;;5073307;28;20369;-42
2022/03/19 10:48:19;;;;;;;4.90;2.50;;;11.20;76.40;;;;;;5073309;28;20025;-42
2022/03/19 10:50:44;;;;;;;6.93;2.78;;;11.30;76.90;;;;;;5074100;28;20028;-41
2022/03/19 10:53:11;;;;;;;6.75;2.60;;;11.30;75.70;;;;;;5067559;28;20023;-41
2022/03/19 10:55:36;;;;;;;4.68;2.45;;;11.40;75.70;;;;;;5076955;28;20082;-42
2022/03/19 10:58:03;;;;;;;8.82;2.75;;;11.50;74.40;;;;;;5065903;28;20044;-41
2022/03/19 11:00:28;;;;;;;4.50;2.40;;;11.50;72.10;;;;;;5075387;28;20506;-42
2022/03/19 11:03:00;;;;;;;6.15;2.17;;;11.50;72.30;;;;;;5065459;28;20024;-41
2022/03/19 11:05:29;;;;;;;5.05;2.08;;;11.50;72.30;;;;;;5072654;28;20046;-41
2022/03/19 11:07:56;;;;;;;6.45;2.40;;;11.60;72.50;;;;;;5085461;28;20040;-42
2022/03/19 11:10:22;;;;;;;6.15;2.30;;;11.60;71.60;;;;;;5072517;28;20033;-42
2022/03/19 11:12:52;;;;;;;8.63;2.60;;;11.60;70.40;;;;;;5083871;28;20027;-41
2022/03/19 11:15:19;;;;;;;6.22;2.50;;;11.60;68.70;;;;;;5074140;28;20035;-42
2022/03/19 11:17:48;;;;;;;4.18;2.10;;;11.60;69.50;;;;;;5085004;28;20128;-41
2022/03/19 11:20:15;;;;;;;4.72;1.98;;;11.70;68.70;;;;;;5075117;28;20035;-41
2022/03/19 11:22:53;;;;;;;6.45;2.25;;;11.70;67.30;;;;;;5083363;28;20067;-42
2022/03/19 11:25:28;;;;;;;7.97;2.00;;;11.80;66.40;;;;;;5076051;28;20585;-40
2022/03/19 11:27:59;;;;;;;3.60;1.55;;;11.80;67.00;;;;;;5082879;28;20032;-41
2022/03/19 11:30:30;;;;;;;5.30;1.73;;;11.90;66.50;;;;;;5077059;28;20024;-41
2022/03/19 11:33:07;;;;;;;4.28;1.83;;;11.90;64.90;;;;;;5081662;28;20387;-37
2022/03/19 11:35:35;;;;;;;5.40;1.90;;;11.90;66.20;;;;;;5077157;28;20031;-41
2022/03/19 11:38:11;;;;;;;4.82;1.80;;;12.00;66.10;;;;;;5081760;28;20287;-42
2022/03/19 11:40:38;;;;;;;5.22;1.80;;;12.10;65.30;;;;;;5077277;28;20045;-40
2022/03/19 11:43:05;;;;;;;5.88;1.95;;;12.10;63.30;;;;;;5080825;28;20023;-43
2022/03/19 11:45:59;;;;;;;4.00;1.83;;;12.20;63.10;;;;;;5079973;28;20048;-41
2022/03/19 11:48:48;;;;;;;6.38;2.00;;;12.30;61.60;;;;;;5066217;28;20536;-41
2022/03/19 11:51:24;;;;;;;7.75;1.90;;;12.30;62.20;;;;;;5073688;28;20027;-42
2022/03/19 11:54:02;;;;;;;6.15;1.70;;;12.40;62.10;;;;;;5065566;28;20123;-41
2022/03/19 11:56:48;;;;;;;4.32;1.65;;;12.40;62.80;;;;;;5075414;28;20039;-41
2022/03/19 11:59:16;;;;;;;4.78;1.90;;;12.40;62.70;;;;;;5065594;28;20040;-40
2022/03/19 12:02:05;;;;;;;4.57;1.67;;;12.50;62.40;;;;;;5075144;28;20075;-43
2022/03/19 12:04:44;;;;;;;4.70;1.63;;;12.50;62.40;;;;;;5065711;28;20059;-42
2022/03/19 12:07:10;;;;;;;4.90;1.55;;;12.60;63.20;;;;;;5077969;28;20047;-43
2022/03/19 12:09:39;;;;;;;5.78;1.90;;;12.70;60.30;;;;;;5065010;28;20562;-42
2022/03/19 12:12:06;;;;;;;4.20;1.40;;;12.70;59.30;;;;;;5079630;28;20020;-42
2022/03/19 12:14:35;;;;;;;4.53;1.33;;;12.70;58.10;;;;;;5070537;28;20742;-42
2022/03/19 12:17:16;;;;;;;6.47;1.55;;;12.70;55.90;;;;;;5077322;28;20383;-42
2022/03/19 12:20:01;;;;;;;4.43;1.10;;;12.80;55.50;;;;;;5070017;28;20071;-40
2022/03/19 12:22:39;;;;;;;3.75;1.42;;;12.80;56.40;;;;;;5079422;28;20032;-41
2022/03/19 12:25:30;;;;;;;5.53;1.40;;;12.80;57.30;;;;;;5069292;28;20032;-42
2022/03/19 12:27:57;;;;;;;5.38;1.52;;;12.80;57.20;;;;;;5081237;28;20032;-40
2022/03/19 12:30:24;;;;;;;5.00;1.92;;;12.90;58.00;;;;;;5068270;28;20020;-42
2022/03/19 12:32:55;;;;;;;4.05;1.80;;;12.90;59.00;;;;;;5079864;28;20486;-42
2022/03/19 12:35:25;;;;;;;4.07;1.83;;;13.00;59.60;;;;;;5069624;28;20021;-40
2022/03/19 12:37:53;;;;;;;5.25;1.65;;;13.00;59.90;;;;;;5077443;28;20036;-41
2022/03/19 12:40:27;;;;;;;6.38;1.77;;;13.10;60.40;;;;;;5071235;28;20028;-40
2022/03/19 12:42:57;;;;;;;5.38;1.85;;;13.10;60.50;;;;;;5077006;28;20548;-40
2022/03/19 12:45:39;;;;;;;3.97;1.40;;;13.20;61.60;;;;;;5071126;28;20024;-41
2022/03/19 12:48:18;;;;;;;4.97;1.40;;;13.20;58.60;;;;;;5077897;28;20467;-41
2022/03/19 12:50:51;;;;;;;4.13;1.70;;;13.20;57.80;;;;;;5069443;28;20064;-42
2022/03/19 12:53:32;;;;;;;4.68;1.80;;;13.20;57.50;;;;;;5078018;28;20035;-42
2022/03/19 12:56:16;;;;;;;5.93;2.13;;;13.20;57.70;;;;;;5069272;28;20020;-44
2022/03/19 12:58:44;;;;;;;4.07;1.80;;;13.30;57.80;;;;;;5078570;28;20110;-43
2022/03/19 13:01:11;;;;;;;3.97;1.50;;;13.30;57.20;;;;;;5069130;28;20036;-41
2022/03/19 13:03:37;;;;;;;3.45;1.50;;;13.30;57.50;;;;;;5077302;28;20031;-42
2022/03/19 13:06:03;;;;;;;5.00;1.83;;;13.40;57.70;;;;;;5070865;28;20020;-42